Time;durP1;ratioP1;P1;durP2;ratioP2;P2;SDS_P1;SDS_P2;PMS_P1;PMS_P2;Temp;Humidity;BMP_temperature;BMP_pressure;BME280_temperature;BME280_humidity;BME280_pressure;Samples;Min_cycle;Max_cycle;Signal;HPM_P1;HPM_P2
2023/11/19 06:39:35;;;;;;;2.58;0.63;;;;;;;;;;4978702;28;20783;-84
2023/11/19 06:42:04;;;;;;;0.63;0.35;;;;;;;;;;4995268;28;20048;-84
2023/11/19 06:44:32;;;;;;;1.30;0.70;;;;;;;;;;5192401;22;20064;31
2023/11/19 06:47:46;;;;;;;;;;;;;;;;;;;;;
2023/11/19 06:50:37;;;;;;;1.00;0.63;;;;;;;;;;4983806;28;20084;-85
2023/11/19 06:53:05;;;;;;;1.58;0.63;;;;;;;;;;4991485;28;20030;-83
2023/11/19 06:55:50;;;;;;;1.83;0.52;;;;;;;;;;5297580;23;20607;-84
2023/11/19 06:58:17;;;;;;;2.03;0.98;;;;;;;;;;5025886;28;20048;-84
2023/11/19 07:06:53;;;;;;;0.57;0.35;;;;;;;;;;4987760;28;20122;-84
2023/11/19 07:09:24;;;;;;;0.55;0.50;;;;;;;;;;4966668;28;20141;-86
2023/11/19 07:12:01;;;;;;;0.95;0.38;;;;;;;;;;4970876;28;20066;-86
2023/11/19 07:14:30;;;;;;;0.95;0.52;;;;;;;;;;5149272;23;20058;-85
2023/11/19 07:16:56;;;;;;;1.67;0.95;;;;;;;;;;5001813;28;20113;-83
2023/11/19 07:19:22;;;;;;;2.25;0.88;;;;;;;;;;5001229;28;20450;-83
2023/11/19 07:21:48;;;;;;;1.05;0.40;;;;;;;;;;5007568;28;20041;-84
2023/11/19 07:24:14;;;;;;;2.72;1.67;;;;;;;;;;5020118;28;20439;-83
2023/11/19 07:26:46;;;;;;;5.38;1.35;;;;;;;;;;4999504;28;20049;-84
2023/11/19 07:29:13;;;;;;;1.45;0.40;;;;;;;;;;5015917;28;20042;-85
2023/11/19 07:31:39;;;;;;;1.80;0.90;;;;;;;;;;5006520;28;20053;-85
2023/11/19 07:34:59;;;;;;;;;;;;;;;;;;;;;
2023/11/19 07:43:48;;;;;;;0.75;0.40;;;;;;;;;;4966206;28;20050;-86
2023/11/19 07:49:45;;;;;;;1.45;0.65;;;;;;;;;;4916648;29;20075;-88
2023/11/19 07:52:20;;;;;;;2.45;1.17;;;;;;;;;;4908263;29;20479;-86
2023/11/19 08:22:48;;;;;;;1.52;0.65;;;;;;;;;;4999586;28;20060;-85
2023/11/19 08:25:16;;;;;;;1.50;0.85;;;;;;;;;;4994286;28;20121;-84
2023/11/19 08:28:08;;;;;;;1.75;0.77;;;;;;;;;;5000256;28;20052;-85
2023/11/19 08:30:40;;;;;;;3.50;0.97;;;;;;;;;;4987003;28;20489;-85
2023/11/19 08:36:27;;;;;;;;;;;;;;;;;;;;;
2023/11/19 08:38:53;;;;;;;3.22;1.50;;;;;;;;;;4927634;29;20050;-86
2023/11/19 08:53:13;;;;;;;0.98;0.57;;;;;;;;;;4955240;28;20106;-88
2023/11/19 09:06:25;;;;;;;0.75;0.50;;;;;;;;;;5143940;23;20119;-88
2023/11/19 09:09:18;;;;;;;0.20;0.13;;;;;;;;;;5027721;28;20044;-88
2023/11/19 09:12:00;;;;;;;0.70;0.30;;;;;;;;;;5017543;28;20129;-87
2023/11/19 09:14:43;;;;;;;0.68;0.43;;;;;;;;;;5201860;23;20117;-88
2023/11/19 09:23:49;;;;;;;4.47;0.85;;;;;;;;;;4983188;28;20037;-88
2023/11/19 09:26:25;;;;;;;1.90;0.70;;;;;;;;;;4989828;28;20034;-87
2023/11/19 09:29:35;;;;;;;2.15;0.98;;;;;;;;;;4989423;28;20498;-88
2023/11/19 09:32:21;;;;;;;1.13;0.38;;;;;;;;;;4986970;28;20574;-87
2023/11/19 09:43:33;;;;;;;3.85;0.73;;;;;;;;;;5136851;22;20552;-87
2023/11/19 09:46:29;;;;;;;2.83;1.00;;;;;;;;;;5011535;28;20132;-89
2023/11/19 09:49:08;;;;;;;1.42;0.52;;;;;;;;;;4991682;28;20033;-88
2023/11/19 09:58:19;;;;;;;0.95;0.55;;;;;;;;;;5022456;28;20464;-88
2023/11/19 10:03:39;;;;;;;;;;;;;;;;;;5137908;23;20157;-87
2023/11/19 10:06:07;;;;;;;3.95;0.82;;;;;;;;;;5029985;28;19913;-86
2023/11/19 10:08:34;;;;;;;1.13;0.63;;;;;;;;;;5015372;28;20049;-87
2023/11/19 10:11:00;;;;;;;0.82;0.55;;;;;;;;;;5020869;28;20064;-85
2023/11/19 10:13:37;;;;;;;2.45;1.30;;;;;;;;;;4998797;28;20436;-84
2023/11/19 10:16:16;;;;;;;2.22;1.15;;;;;;;;;;5005165;28;20124;-88
2023/11/19 10:18:53;;;;;;;3.15;0.95;;;;;;;;;;5049640;23;20390;-86
2023/11/19 10:21:19;;;;;;;2.33;0.40;;;;;;;;;;5109957;22;20021;-86
2023/11/19 10:23:58;;;;;;;3.38;1.00;;;;;;;;;;4999965;28;20206;-88
2023/11/19 10:26:24;;;;;;;1.45;0.60;;;;;;;;;;5001315;28;20045;-88
2023/11/19 10:32:07;;;;;;;4.68;1.10;;;;;;;;;;4961315;28;20049;-88
2023/11/19 10:34:47;;;;;;;3.10;1.30;;;;;;;;;;4983968;28;20042;-88
2023/11/19 10:37:37;;;;;;;3.38;1.77;;;;;;;;;;4979322;28;20057;-88
2023/11/19 10:43:31;;;;;;;5.18;2.08;;;;;;;;;;4930936;29;20478;-86
2023/11/19 10:46:29;;;;;;;8.15;2.78;;;;;;;;;;4978285;28;20049;-86
2023/11/19 11:09:50;;;;;;;2.88;1.33;;;;;;;;;;5020676;28;20080;-84
2023/11/19 11:15:54;;;;;;;2.38;1.00;;;;;;;;;;4980964;23;20046;-84
2023/11/19 11:18:26;;;;;;;2.38;1.00;;;;;;;;;;5019758;28;20084;-84
2023/11/19 11:21:10;;;;;;;2.08;1.05;;;;;;;;;;5010081;28;20026;-86
2023/11/19 11:23:54;;;;;;;1.98;0.73;;;;;;;;;;5023585;28;20057;-86
2023/11/19 11:26:20;;;;;;;1.92;1.08;;;;;;;;;;5019973;28;20481;-86
2023/11/19 11:29:22;;;;;;;5.15;2.38;;;;;;;;;;5018395;28;20083;-87
2023/11/19 11:32:07;;;;;;;4.75;1.52;;;;;;;;;;5032877;28;20048;-85
2023/11/19 11:34:54;;;;;;;2.90;1.75;;;;;;;;;;5024362;28;20432;-84
2023/11/19 11:37:58;;;;;;;2.00;0.60;;;;;;;;;;5010166;28;20161;-85
2023/11/19 11:40:25;;;;;;;1.02;0.55;;;;;;;;;;5020374;28;20080;-85
2023/11/19 11:43:01;;;;;;;7.63;1.98;;;;;;;;;;5021223;28;20041;-87
2023/11/19 11:45:46;;;;;;;3.17;1.58;;;;;;;;;;5024469;28;20631;-85
2023/11/19 11:48:13;;;;;;;3.80;2.00;;;;;;;;;;5023606;28;20038;-85
2023/11/19 11:50:49;;;;;;;4.57;1.23;;;;;;;;;;5033786;28;20056;-85
2023/11/19 11:53:22;;;;;;;5.70;1.95;;;;;;;;;;5029931;28;20041;-85
2023/11/19 11:55:51;;;;;;;7.97;1.63;;;;;;;;;;5044548;28;20045;-85
2023/11/19 11:58:34;;;;;;;2.90;1.63;;;;;;;;;;5040037;28;20395;-84
2023/11/19 12:01:01;;;;;;;6.55;2.08;;;;;;;;;;5026375;28;20152;-85
2023/11/19 12:03:28;;;;;;;3.35;1.58;;;;;;;;;;5022868;28;20045;-85
2023/11/19 12:05:54;;;;;;;1.55;0.85;;;;;;;;;;5016084;28;20029;-85
2023/11/19 12:08:30;;;;;;;2.67;1.33;;;;;;;;;;5013189;28;20040;-85
2023/11/19 12:10:59;;;;;;;3.25;1.65;;;;;;;;;;5034524;28;20057;-85
2023/11/19 12:13:30;;;;;;;3.47;1.33;;;;;;;;;;5016532;28;20046;-85
2023/11/19 12:15:58;;;;;;;3.50;1.25;;;;;;;;;;5024473;28;20053;-85
2023/11/19 12:18:26;;;;;;;3.63;1.90;;;;;;;;;;5015441;28;20346;-85
2023/11/19 12:20:52;;;;;;;3.20;1.08;;;;;;;;;;5035376;28;20088;-86
2023/11/19 12:23:18;;;;;;;2.00;0.65;;;;;;;;;;5015824;28;20038;-85
2023/11/19 12:25:47;;;;;;;8.02;2.25;;;;;;;;;;5006236;28;20038;-85
2023/11/19 12:28:20;;;;;;;4.05;1.98;;;;;;;;;;5005084;28;22321;-86
2023/11/19 12:30:47;;;;;;;1.85;1.35;;;;;;;;;;5006865;28;20385;-85
2023/11/19 12:33:17;;;;;;;4.80;1.58;;;;;;;;;;5023880;28;20029;-85
2023/11/19 12:35:49;;;;;;;5.05;1.48;;;;;;;;;;5015559;28;20052;-85
2023/11/19 12:38:22;;;;;;;3.17;1.40;;;;;;;;;;4999443;28;20921;-85
2023/11/19 12:41:02;;;;;;;0.95;0.73;;;;;;;;;;5015156;28;20481;-85
2023/11/19 12:43:29;;;;;;;2.40;1.33;;;;;;;;;;5001723;28;20122;-86
2023/11/19 12:45:57;;;;;;;2.53;1.05;;;;;;;;;;5011408;28;20416;-85
2023/11/19 12:48:23;;;;;;;2.40;0.95;;;;;;;;;;5004729;28;20061;-85
2023/11/19 12:50:57;;;;;;;2.50;1.52;;;;;;;;;;5003907;28;20556;-85
2023/11/19 12:53:24;;;;;;;2.10;0.73;;;;;;;;;;5006057;28;20087;-85
2023/11/19 12:55:50;;;;;;;4.55;1.63;;;;;;;;;;4997939;28;20517;-85
2023/11/19 12:58:32;;;;;;;3.88;1.50;;;;;;;;;;5008617;28;20046;-85
2023/11/19 13:01:06;;;;;;;3.85;0.95;;;;;;;;;;5024062;28;20064;-85
2023/11/19 13:03:40;;;;;;;1.75;0.85;;;;;;;;;;5017647;28;20489;-85
2023/11/19 13:06:12;;;;;;;2.10;0.82;;;;;;;;;;5002111;28;20635;-85
2023/11/19 13:08:44;;;;;;;2.13;1.02;;;;;;;;;;5001468;28;20583;-85
2023/11/19 13:11:10;;;;;;;4.10;1.48;;;;;;;;;;5017011;28;20040;-83
2023/11/19 13:13:56;;;;;;;3.72;1.77;;;;;;;;;;5001175;28;20042;-83
2023/11/19 13:16:23;;;;;;;2.35;0.90;;;;;;;;;;5021049;28;20145;-83
2023/11/19 13:18:49;;;;;;;2.22;0.82;;;;;;;;;;5012495;28;20445;-82
2023/11/19 13:21:17;;;;;;;3.25;1.77;;;;;;;;;;5036131;28;20038;-84
2023/11/19 13:23:43;;;;;;;1.63;1.10;;;;;;;;;;5017056;28;20058;-86
2023/11/19 13:26:10;;;;;;;1.55;0.52;;;;;;;;;;5022006;28;20034;-84
2023/11/19 13:28:36;;;;;;;2.72;0.88;;;;;;;;;;5000302;28;20069;-85
2023/11/19 13:31:02;;;;;;;4.13;1.45;;;;;;;;;;4996905;28;20462;-85
2023/11/19 13:33:29;;;;;;;1.65;1.20;;;;;;;;;;5014359;28;20389;-84
2023/11/19 13:35:55;;;;;;;3.35;1.50;;;;;;;;;;5013723;28;20038;-84
2023/11/19 13:38:22;;;;;;;3.55;1.05;;;;;;;;;;5003384;28;20084;-84
2023/11/19 13:40:48;;;;;;;3.65;0.93;;;;;;;;;;5005671;28;20050;-83
2023/11/19 13:43:15;;;;;;;3.40;0.95;;;;;;;;;;5003138;28;20565;-83
2023/11/19 13:45:41;;;;;;;6.22;2.47;;;;;;;;;;5009869;28;20042;-85
2023/11/19 13:48:07;;;;;;;3.45;1.95;;;;;;;;;;5004392;28;20489;-84
2023/11/19 13:50:34;;;;;;;3.65;2.65;;;;;;;;;;5019480;28;20048;-83
2023/11/19 13:53:00;;;;;;;2.15;0.95;;;;;;;;;;5017072;28;20498;-85
2023/11/19 13:55:26;;;;;;;4.03;1.38;;;;;;;;;;5020759;28;20041;-86
2023/11/19 13:57:52;;;;;;;2.55;0.90;;;;;;;;;;5012461;28;20037;-85
2023/11/19 14:00:23;;;;;;;5.38;1.40;;;;;;;;;;5001742;28;20081;-86
2023/11/19 14:02:49;;;;;;;1.33;0.63;;;;;;;;;;5000342;28;20068;-86
2023/11/19 14:05:17;;;;;;;0.80;0.32;;;;;;;;;;4995974;28;20473;-86
2023/11/19 14:07:43;;;;;;;1.77;0.68;;;;;;;;;;5004349;28;20042;-86
2023/11/19 14:10:10;;;;;;;3.10;1.58;;;;;;;;;;5000448;28;20041;-87
2023/11/19 14:12:37;;;;;;;0.77;0.47;;;;;;;;;;5012979;28;20594;-83
2023/11/19 14:15:05;;;;;;;1.15;0.50;;;;;;;;;;5017167;28;20037;-85
2023/11/19 14:17:31;;;;;;;1.30;0.82;;;;;;;;;;5007827;28;20069;-83
2023/11/19 14:19:57;;;;;;;3.03;0.98;;;;;;;;;;5002915;28;20153;-85
2023/11/19 14:22:24;;;;;;;11.40;2.05;;;;;;;;;;5018168;28;20116;-84
2023/11/19 14:24:50;;;;;;;5.65;2.20;;;;;;;;;;5019466;28;20570;-82
2023/11/19 14:27:19;;;;;;;2.50;1.40;;;;;;;;;;5013250;28;20046;-83
2023/11/19 14:29:48;;;;;;;3.88;0.82;;;;;;;;;;5021434;28;20053;-84
2023/11/19 14:32:14;;;;;;;2.85;1.63;;;;;;;;;;5012363;28;20130;-84
2023/11/19 14:34:40;;;;;;;1.63;0.75;;;;;;;;;;5038757;28;20361;-86
2023/11/19 14:37:06;;;;;;;1.40;0.32;;;;;;;;;;5005209;28;20489;-85
2023/11/19 14:39:32;;;;;;;1.02;0.45;;;;;;;;;;5021462;28;20046;-85
2023/11/19 14:42:00;;;;;;;0.52;0.35;;;;;;;;;;4998472;28;20069;-84
2023/11/19 14:44:28;;;;;;;2.15;0.50;;;;;;;;;;4993284;28;20592;-85
2023/11/19 14:46:54;;;;;;;1.92;0.43;;;;;;;;;;5003200;28;20986;-83
2023/11/19 14:49:24;;;;;;;0.65;0.38;;;;;;;;;;5011983;28;20053;-85
2023/11/19 14:51:50;;;;;;;0.45;0.30;;;;;;;;;;5009612;28;20412;-85
2023/11/19 14:54:16;;;;;;;0.52;0.43;;;;;;;;;;5000029;28;20044;-83
2023/11/19 14:56:42;;;;;;;0.45;0.40;;;;;;;;;;5024803;28;20037;-84
2023/11/19 14:59:08;;;;;;;1.85;1.17;;;;;;;;;;4996600;28;20056;-84
2023/11/19 15:01:34;;;;;;;6.15;2.22;;;;;;;;;;4995795;28;20046;-86
2023/11/19 15:04:26;;;;;;;2.40;1.00;;;;;;;;;;5015889;28;20040;-86
2023/11/19 15:06:55;;;;;;;1.60;0.82;;;;;;;;;;5063213;23;20477;-86
2023/11/19 15:09:24;;;;;;;2.35;0.90;;;;;;;;;;5013871;28;20034;-86
2023/11/19 15:11:50;;;;;;;1.58;0.80;;;;;;;;;;5019215;28;20046;-86
2023/11/19 15:14:18;;;;;;;0.50;0.20;;;;;;;;;;5023014;28;20119;-84
2023/11/19 15:16:45;;;;;;;0.68;0.45;;;;;;;;;;5022985;28;20045;-84
2023/11/19 15:19:14;;;;;;;0.47;0.30;;;;;;;;;;5027547;28;20036;-85
2023/11/19 15:21:46;;;;;;;1.20;0.60;;;;;;;;;;5027343;28;20052;-86
2023/11/19 15:24:21;;;;;;;1.60;0.82;;;;;;;;;;5023453;28;20040;-85
2023/11/19 15:26:49;;;;;;;1.05;0.50;;;;;;;;;;5031342;28;20046;-84
2023/11/19 15:29:15;;;;;;;1.65;0.57;;;;;;;;;;5014740;28;20129;-82
2023/11/19 15:31:44;;;;;;;0.40;0.30;;;;;;;;;;5020675;28;20124;-86
2023/11/19 15:34:14;;;;;;;1.30;0.82;;;;;;;;;;5027234;28;20032;-85
2023/11/19 15:36:40;;;;;;;2.28;0.57;;;;;;;;;;5023771;28;20052;-84
2023/11/19 15:39:26;;;;;;;1.27;0.52;;;;;;;;;;5021195;28;20055;-87
2023/11/19 15:41:52;;;;;;;1.90;0.95;;;;;;;;;;5024580;28;20042;-86
2023/11/19 15:44:18;;;;;;;2.60;1.00;;;;;;;;;;5019470;28;20120;-86
2023/11/19 15:46:44;;;;;;;2.72;1.20;;;;;;;;;;5016152;28;20037;-87
2023/11/19 15:49:10;;;;;;;3.42;1.00;;;;;;;;;;5022497;28;20493;-87
2023/11/19 15:51:36;;;;;;;8.15;1.95;;;;;;;;;;5021299;28;20838;-87
2023/11/19 15:54:08;;;;;;;4.05;1.20;;;;;;;;;;5018127;28;20537;-87
2023/11/19 15:56:37;;;;;;;5.40;2.07;;;;;;;;;;5040478;28;20569;-87
2023/11/19 15:59:04;;;;;;;7.47;3.72;;;;;;;;;;5025719;28;20037;-85
2023/11/19 16:01:30;;;;;;;9.02;3.58;;;;;;;;;;5017026;28;20500;-85
2023/11/19 16:04:05;;;;;;;4.88;3.05;;;;;;;;;;5027584;28;20033;-87
2023/11/19 16:06:45;;;;;;;11.88;4.75;;;;;;;;;;5022501;28;20405;-86
2023/11/19 16:09:14;;;;;;;4.82;3.17;;;;;;;;;;4983531;28;20082;-86
2023/11/19 16:11:43;;;;;;;4.78;2.58;;;;;;;;;;4990358;28;20485;-86
2023/11/19 16:14:09;;;;;;;9.70;3.30;;;;;;;;;;4982938;28;20049;-86
2023/11/19 16:16:35;;;;;;;5.85;2.78;;;;;;;;;;4985199;28;20049;-86
2023/11/19 16:19:04;;;;;;;7.47;1.85;;;;;;;;;;4985307;28;20429;-86
2023/11/19 16:21:41;;;;;;;5.00;2.97;;;;;;;;;;4992095;28;20078;-88
2023/11/19 16:30:22;;;;;;;;;;;;;;;;;;4957751;28;20078;-87
2023/11/19 16:39:25;;;;;;;7.30;3.97;;;;;;;;;;4862970;29;20570;-85
2023/11/19 16:41:51;;;;;;;;;;;;;;;;;;4838094;29;20114;-84
2023/11/19 16:44:22;;;;;;;5.05;2.53;;;;;;;;;;4891259;29;20028;-84
2023/11/19 16:46:51;;;;;;;6.65;3.15;;;;;;;;;;4954634;28;20033;-84
2023/11/19 16:49:17;;;;;;;6.10;3.08;;;;;;;;;;4997091;28;20066;-84
2023/11/19 16:51:50;;;;;;;2.55;1.23;;;;;;;;;;4995989;28;20569;-84
2023/11/19 16:54:22;;;;;;;1.52;0.55;;;;;;;;;;4999201;28;20065;-84
2023/11/19 16:57:01;;;;;;;2.65;1.17;;;;;;;;;;4982951;28;20485;-87
2023/11/19 16:59:32;;;;;;;3.55;1.27;;;;;;;;;;4976584;28;20192;-86
2023/11/19 17:01:59;;;;;;;1.93;1.10;;;;;;;;;;4998933;28;20033;-86
2023/11/19 17:04:27;;;;;;;1.67;0.82;;;;;;;;;;4996523;28;20046;-85
2023/11/19 17:06:55;;;;;;;4.72;1.70;;;;;;;;;;4999927;28;20263;-85
2023/11/19 17:09:21;;;;;;;7.60;2.85;;;;;;;;;;5019859;28;20073;-85
2023/11/19 17:12:13;;;;;;;4.20;3.08;;;;;;;;;;4998428;28;20469;-88
2023/11/19 17:18:37;;;;;;;;;;;;;;;;;;;;;
2023/11/19 17:21:32;;;;;;;8.10;3.67;;;;;;;;;;5017674;28;20048;-86
2023/11/19 17:24:03;;;;;;;7.40;4.72;;;;;;;;;;4999388;28;20037;-86
2023/11/19 17:26:35;;;;;;;9.70;2.63;;;;;;;;;;4987886;28;20268;-87
2023/11/19 17:29:18;;;;;;;6.38;2.83;;;;;;;;;;4993744;28;20116;-86
2023/11/19 17:31:44;;;;;;;4.47;2.90;;;;;;;;;;4973894;28;20907;-85
2023/11/19 17:37:03;;;;;;;2.25;0.98;;;;;;;;;;6046010;23;20218;-86
2023/11/19 17:43:13;;;;;;;2.45;0.70;;;;;;;;;;5025474;28;20040;-86
2023/11/19 17:45:52;;;;;;;3.38;1.35;;;;;;;;;;5030315;28;20042;-86
2023/11/19 17:48:34;;;;;;;;;;;;;;;;;;;;;
2023/11/19 17:51:44;;;;;;;5.60;3.28;;;;;;;;;;5020787;28;20037;-87
2023/11/19 17:54:47;;;;;;;;;;;;;;;;;;;;;
2023/11/19 17:57:26;;;;;;;2.53;1.80;;;;;;;;;;5020794;28;20045;-86
2023/11/19 18:00:14;;;;;;;6.38;2.75;;;;;;;;;;5018045;28;20046;-86
2023/11/19 18:02:51;;;;;;;5.72;1.67;;;;;;;;;;5022329;28;20042;-86
2023/11/19 18:20:49;;;;;;;3.85;2.85;;;;;;;;;;6022129;22;21228;-88
2023/11/19 18:23:50;;;;;;;5.40;2.42;;;;;;;;;;5030800;28;20091;-87
2023/11/19 18:26:16;;;;;;;4.13;3.00;;;;;;;;;;4951403;28;20051;-87
2023/11/19 18:28:42;;;;;;;6.47;2.47;;;;;;;;;;5009811;28;20052;-88
2023/11/19 18:37:39;;;;;;;4.38;1.98;;;;;;;;;;4949954;28;20039;-88
2023/11/19 18:40:10;;;;;;;5.78;2.35;;;;;;;;;;4952981;28;20042;-85
2023/11/19 18:45:56;;;;;;;4.53;2.45;;;;;;;;;;5015253;28;20041;-88
2023/11/19 18:59:53;;;;;;;1.85;0.80;;;;;;;;;;5016718;28;20129;-86
2023/11/19 19:02:22;;;;;;;3.50;1.10;;;;;;;;;;4999062;28;20030;-86
2023/11/19 19:07:58;;;;;;;3.78;1.67;;;;;;;;;;5017556;28;20049;-86
2023/11/19 19:13:54;;;;;;;3.50;1.77;;;;;;;;;;5014495;28;20049;-86
2023/11/19 19:16:20;;;;;;;6.95;3.05;;;;;;;;;;5008796;28;20137;-86
2023/11/19 19:18:49;;;;;;;4.15;1.73;;;;;;;;;;5010323;28;20153;-86
2023/11/19 19:21:31;;;;;;;9.57;2.15;;;;;;;;;;5003610;28;20516;-86
2023/11/19 19:24:20;;;;;;;4.80;1.90;;;;;;;;;;5001308;28;20065;-86
2023/11/19 19:26:57;;;;;;;8.45;2.55;;;;;;;;;;5002485;28;20327;-86
2023/11/19 19:29:26;;;;;;;5.15;2.53;;;;;;;;;;4996403;28;20064;-86
2023/11/19 19:31:55;;;;;;;4.00;1.95;;;;;;;;;;5013333;28;20046;-86
2023/11/19 19:34:28;;;;;;;10.45;3.60;;;;;;;;;;4999224;28;20046;-86
2023/11/19 19:40:39;;;;;;;4.18;1.88;;;;;;;;;;5015316;28;20528;-86
2023/11/19 19:43:28;;;;;;;3.30;2.15;;;;;;;;;;5001846;28;20864;-86
2023/11/19 19:46:00;;;;;;;5.38;2.60;;;;;;;;;;5015183;28;20553;-86
2023/11/19 19:48:31;;;;;;;5.22;3.45;;;;;;;;;;5008998;28;20133;-86
2023/11/19 19:51:15;;;;;;;6.55;4.15;;;;;;;;;;5018123;28;20148;-86
2023/11/19 19:53:47;;;;;;;6.28;3.20;;;;;;;;;;4999310;28;20046;-86
2023/11/19 19:56:21;;;;;;;7.47;3.20;;;;;;;;;;5003877;28;20037;-86
2023/11/19 19:59:09;;;;;;;7.03;3.05;;;;;;;;;;5019714;28;20046;-86
2023/11/19 20:01:43;;;;;;;4.03;1.88;;;;;;;;;;5015080;28;20050;-86
2023/11/19 20:04:20;;;;;;;3.95;1.90;;;;;;;;;;5007390;28;20033;-85
2023/11/19 20:06:47;;;;;;;2.78;1.05;;;;;;;;;;5008583;28;20208;-87
2023/11/19 20:09:18;;;;;;;7.55;2.90;;;;;;;;;;5004979;28;20044;-86
2023/11/19 20:11:47;;;;;;;4.07;2.95;;;;;;;;;;5005169;28;20057;-86
2023/11/19 20:14:32;;;;;;;;;;;;;;;;;;;;;
2023/11/19 20:17:15;;;;;;;;;;;;;;;;;;;;;
2023/11/19 20:19:54;;;;;;;9.88;4.20;;;;;;;;;;5022159;28;20049;-86
2023/11/19 20:22:26;;;;;;;8.15;2.97;;;;;;;;;;5007808;28;20130;-87
2023/11/19 20:24:55;;;;;;;5.75;2.85;;;;;;;;;;5003164;28;20047;-86
2023/11/19 20:27:30;;;;;;;11.90;4.53;;;;;;;;;;4997490;28;20041;-85
2023/11/19 20:30:03;;;;;;;5.80;2.20;;;;;;;;;;5000759;28;20052;-85
2023/11/19 20:32:36;;;;;;;7.43;2.55;;;;;;;;;;4994352;28;20073;-85
2023/11/19 20:35:32;;;;;;;7.78;2.50;;;;;;;;;;5000648;28;20050;-86
2023/11/19 20:38:22;;;;;;;6.40;3.30;;;;;;;;;;5002340;28;20417;-86
2023/11/19 20:40:59;;;;;;;7.88;2.85;;;;;;;;;;5002319;28;20053;-86
2023/11/19 20:43:33;;;;;;;11.75;3.33;;;;;;;;;;5023157;28;20136;-86
2023/11/19 20:45:59;;;;;;;8.38;3.50;;;;;;;;;;5009168;28;20041;-86
2023/11/19 20:48:25;;;;;;;4.13;2.78;;;;;;;;;;4995661;28;20044;-85
2023/11/19 20:51:03;;;;;;;8.30;3.00;;;;;;;;;;4998430;28;20712;-85
2023/11/19 20:53:29;;;;;;;5.72;2.33;;;;;;;;;;5001928;28;20066;-86
2023/11/19 20:55:58;;;;;;;4.03;2.00;;;;;;;;;;5006835;28;20045;-86
2023/11/19 20:58:24;;;;;;;6.30;2.65;;;;;;;;;;5001154;28;20080;-86
2023/11/19 21:01:08;;;;;;;4.13;3.40;;;;;;;;;;5001599;28;20615;-86
2023/11/19 21:03:36;;;;;;;10.23;3.90;;;;;;;;;;5009924;28;20046;-86
2023/11/19 21:06:17;;;;;;;3.40;2.15;;;;;;;;;;4997679;28;20057;-86
2023/11/19 21:08:52;;;;;;;11.80;2.38;;;;;;;;;;5009738;28;20069;-86
2023/11/19 21:14:18;;;;;;;9.48;2.35;;;;;;;;;;5022760;28;20455;-86
2023/11/19 21:16:55;;;;;;;4.15;2.55;;;;;;;;;;5010430;28;20052;-86
2023/11/19 21:19:21;;;;;;;6.57;3.53;;;;;;;;;;5006055;28;20040;-86
2023/11/19 21:21:57;;;;;;;5.95;3.17;;;;;;;;;;5007023;28;20045;-86
2023/11/19 21:24:30;;;;;;;5.20;1.95;;;;;;;;;;5011401;28;20037;-86
2023/11/19 21:26:56;;;;;;;4.50;1.50;;;;;;;;;;5000385;28;20046;-86
2023/11/19 21:29:28;;;;;;;5.03;2.33;;;;;;;;;;4997787;28;20069;-86
2023/11/19 21:31:57;;;;;;;4.50;2.10;;;;;;;;;;5012459;28;20468;-86
2023/11/19 21:34:27;;;;;;;7.45;3.13;;;;;;;;;;5001639;28;20061;-86
2023/11/19 21:37:19;;;;;;;5.88;4.20;;;;;;;;;;4991169;28;20044;-86
2023/11/19 21:39:59;;;;;;;9.50;3.50;;;;;;;;;;4985181;28;20107;-86
2023/11/19 21:42:28;;;;;;;4.03;2.00;;;;;;;;;;4980833;28;20402;-86
2023/11/19 21:44:59;;;;;;;5.03;2.30;;;;;;;;;;5000618;28;20039;-86
2023/11/19 21:47:27;;;;;;;5.18;1.80;;;;;;;;;;4985074;28;20096;-86
2023/11/19 21:50:07;;;;;;;5.45;2.55;;;;;;;;;;4990944;28;20056;-86
2023/11/19 21:52:40;;;;;;;4.85;2.15;;;;;;;;;;4981797;28;20057;-86
2023/11/19 21:55:20;;;;;;;23.83;2.72;;;;;;;;;;4983231;28;20030;-86
2023/11/19 21:57:51;;;;;;;16.23;1.70;;;;;;;;;;4991956;28;20057;-86
2023/11/19 22:00:56;;;;;;;5.15;2.42;;;;;;;;;;4986491;28;20042;-86
2023/11/19 22:03:37;;;;;;;6.68;2.95;;;;;;;;;;4962605;28;20503;-85
2023/11/19 22:06:41;;;;;;;3.90;2.38;;;;;;;;;;4998237;28;20378;-86
2023/11/19 22:12:41;;;;;;;;;;;;;;;;;;;;;
2023/11/19 22:15:26;;;;;;;6.20;1.55;;;;;;;;;;5020675;28;20037;-86
2023/11/19 22:18:11;;;;;;;5.13;2.40;;;;;;;;;;4994134;28;20042;-86
2023/11/19 22:20:45;;;;;;;4.75;1.85;;;;;;;;;;4987402;28;20050;-86
2023/11/19 22:29:32;;;;;;;7.03;2.50;;;;;;;;;;4931091;29;20504;-86
2023/11/19 22:32:25;;;;;;;3.47;1.23;;;;;;;;;;4927482;29;20058;-86
2023/11/19 22:35:02;;;;;;;3.25;1.85;;;;;;;;;;4921494;28;20518;-86
2023/11/19 22:37:35;;;;;;;4.10;1.80;;;;;;;;;;4949515;28;20065;-86
2023/11/19 22:40:14;;;;;;;;;;;;;;;;;;;;;
2023/11/19 22:55:20;;;;;;;3.97;2.10;;;;;;;;;;5000975;28;20100;-86
2023/11/19 22:58:32;;;;;;;;;;;;;;;;;;;;;
2023/11/19 23:12:40;;;;;;;5.72;2.53;;;;;;;;;;5328813;23;20064;-87
2023/11/19 23:15:45;;;;;;;2.22;1.20;;;;;;;;;;5005398;28;20046;-87
2023/11/19 23:33:31;;;;;;;3.33;1.33;;;;;;;;;;5025884;28;20072;-86
2023/11/19 23:36:17;;;;;;;2.97;1.52;;;;;;;;;;5029062;28;20049;-86
2023/11/19 23:45:38;;;;;;;1.90;1.02;;;;;;;;;;5025830;28;20080;-87
2023/11/19 23:48:41;;;;;;;;;;;;;;;;;;;;;
2023/11/19 23:51:23;;;;;;;2.92;1.50;;;;;;;;;;5018024;28;20049;-87
2023/11/19 23:53:56;;;;;;;4.37;1.93;;;;;;;;;;5021989;28;20050;-87
2023/11/19 23:56:36;;;;;;;5.95;2.60;;;;;;;;;;5027138;28;20041;-86
2023/11/19 23:59:04;;;;;;;3.47;1.40;;;;;;;;;;5023707;28;20492;-87
